首页
METAR-TAF:

METAR-TAF

机场 :

庫拉索國際機場

库拉索, 荷属安的列斯

纬度: 12-12N, 经度: 068-58W, 海拔: 9米

当前天气观测

该预报发布于17分钟前的04:00 UTC
风速16节,风向
温度 25°C
湿度 79%
气压 1014 hPa
能见度10公里或以上
多云层高于1700英尺, 塔状积云.
多云层高于3500英尺
附近有阵雨

METAR: TNCC 260400Z 09016KT 9999 VCSH BKN017TCU BKN035 25/21 Q1014 NOSIG

时间: 00:17 (04:17 UTC)

预报

该预报发布于5小时和7分钟前的23:10 UTC
预报有效从26日的 00点(UTC)到 26日的 24点(UTC)
风速15节,风向
能见度10公里或以上
散云层高于1800英尺
短暂存在
从 26日的 00点(UTC)到 26日的 15点(UTC)
多云层高于1500英尺
几率 30% :
短暂存在
从 26日的 01点(UTC)到 26日的 12点(UTC)
风速15节,风向东转东南,有时为26节阵风
能見度: 5000
阵雨, 小雨

TAF: TNCC 252310Z 2600/2624 09015KT 9999 SCT018 TEMPO 2600/2615 BKN015 PROB30 TEMPO 2601/2612 11015G26KT 5000 SHRA -RA

超过4000个机场的气象观测和天气预报(METAR&TAF报告)。

可查询的气象台以黄色和红色小点在地图上表示。

将鼠标移到小点上方,可查看气象台名称。

然后点击查看天气观测和预报。

如需切换地图:点击带黑十字的绿色按钮放大地图;点击带横线的绿色按钮缩小地图;或者点击绿色箭头查看邻近地区的地图。


METAR-TAF: